createdAt,value
2019-04-11T00:01:44.740Z,9.05
2019-04-11T00:04:10.596Z,9.14
2019-04-11T00:06:41.849Z,9.27
2019-04-11T00:09:16.709Z,9.34
2019-04-11T00:11:48.369Z,9.21
2019-04-11T00:14:21.992Z,9.18
2019-04-11T00:16:53.472Z,9.06
2019-04-11T00:19:24.927Z,9.00
2019-04-11T00:21:57.215Z,8.93
2019-04-11T00:24:29.205Z,8.77
2019-04-11T00:27:00.973Z,8.86
2019-04-11T00:29:32.622Z,8.96
2019-04-11T00:32:06.518Z,8.93
2019-04-11T00:34:37.441Z,8.90
2019-04-11T00:37:09.101Z,8.96
2019-04-11T00:39:40.841Z,8.94
2019-04-11T00:42:12.516Z,8.98
2019-04-11T00:44:45.158Z,8.96
2019-04-11T00:47:17.217Z,9.05
2019-04-11T00:49:48.794Z,9.12
2019-04-11T00:52:20.674Z,9.11
2019-04-11T00:54:53.140Z,9.21
2019-04-11T00:57:25.201Z,9.24
2019-04-11T00:59:56.859Z,9.22
2019-04-11T01:02:29.538Z,9.23
2019-04-11T01:05:01.358Z,9.27
2019-04-11T01:07:35.239Z,9.26
2019-04-11T01:10:10.219Z,9.28
2019-04-11T01:12:42.947Z,9.17
2019-04-11T01:15:17.463Z,9.16
2019-04-11T01:17:49.725Z,9.18
2019-04-11T01:20:21.638Z,9.09
2019-04-11T01:22:52.921Z,9.09
2019-04-11T01:25:24.454Z,8.95
2019-04-11T01:27:56.422Z,8.94
2019-04-11T01:30:38.607Z,8.98
2019-04-11T01:33:10.853Z,8.97
2019-04-11T01:35:43.646Z,8.91
2019-04-11T01:38:15.236Z,8.96
2019-04-11T01:40:47.728Z,8.94
2019-04-11T01:43:19.845Z,8.96
2019-04-11T01:45:51.815Z,9.02
2019-04-11T01:48:45.891Z,9.01
2019-04-11T01:51:17.890Z,9.03
2019-04-11T01:53:49.499Z,8.92
2019-04-11T01:56:21.131Z,8.90
2019-04-11T01:58:53.119Z,8.91
2019-04-11T02:01:32.705Z,8.76
2019-04-11T02:04:11.952Z,8.49
2019-04-11T02:06:45.782Z,8.33
2019-04-11T02:09:18.316Z,8.12
2019-04-11T02:11:50.029Z,8.09
2019-04-11T02:14:22.655Z,8.03
2019-04-11T02:16:54.570Z,7.98
2019-04-11T02:19:26.001Z,8.14
2019-04-11T02:22:08.921Z,8.15
2019-04-11T02:24:47.989Z,8.09
2019-04-11T02:27:23.310Z,8.08
2019-04-11T02:29:55.254Z,8.06
2019-04-11T02:32:29.015Z,7.97
2019-04-11T02:35:02.469Z,7.98
2019-04-11T02:37:34.324Z,8.01
2019-04-11T02:40:08.165Z,7.97
2019-04-11T02:42:41.041Z,8.03
2019-04-11T02:45:25.166Z,7.99
2019-04-11T02:47:48.378Z,8.07
2019-04-11T02:50:21.981Z,8.19
2019-04-11T02:52:53.014Z,8.24
2019-04-11T02:55:25.186Z,8.44
2019-04-11T02:57:59.111Z,8.47
2019-04-11T03:00:31.467Z,8.42
2019-04-11T03:03:05.688Z,8.29
2019-04-11T03:05:39.199Z,8.38
2019-04-11T03:08:13.933Z,8.47
2019-04-11T03:10:45.507Z,8.47
2019-04-11T03:13:18.928Z,8.34
2019-04-11T03:16:07.197Z,8.40
2019-04-11T03:18:43.223Z,8.42
2019-04-11T03:21:02.837Z,8.44
2019-04-11T03:23:35.443Z,8.52
2019-04-11T03:26:09.657Z,8.53
2019-04-11T03:28:42.541Z,8.53
2019-04-11T03:31:50.544Z,8.61
2019-04-11T03:37:06.810Z,8.84
2019-04-11T03:39:15.407Z,8.91
2019-04-11T03:41:48.945Z,8.87
2019-04-11T03:44:13.508Z,8.93
2019-04-11T03:46:49.592Z,9.04
2019-04-11T03:49:20.977Z,9.21
2019-04-11T03:51:43.632Z,9.27
2019-04-11T03:54:17.796Z,9.18
2019-04-11T03:56:51.169Z,9.15
2019-04-11T03:59:23.674Z,9.09
2019-04-11T04:01:57.479Z,8.85
2019-04-11T04:04:29.149Z,8.79
2019-04-11T04:07:02.452Z,8.73
2019-04-11T04:09:35.299Z,8.71
2019-04-11T04:12:09.299Z,8.71
2019-04-11T04:15:04.609Z,8.61
2019-04-11T04:17:47.567Z,8.58
2019-04-11T04:20:37.177Z,8.58
2019-04-11T04:23:16.629Z,8.65
2019-04-11T04:25:49.356Z,8.68
2019-04-11T04:28:21.890Z,8.81
2019-04-11T04:30:54.524Z,8.95
2019-04-11T04:33:26.575Z,8.99
2019-04-11T04:36:00.258Z,9.16
2019-04-11T04:38:33.841Z,9.24
2019-04-11T04:41:21.164Z,9.28
2019-04-11T04:43:41.949Z,9.28
2019-04-11T04:46:29.997Z,9.34
2019-04-11T04:48:49.251Z,9.39
2019-04-11T04:51:23.792Z,9.44
2019-04-11T04:53:55.525Z,9.44
2019-04-11T04:56:31.615Z,9.48
2019-04-11T04:59:02.628Z,9.40
2019-04-11T05:01:35.112Z,9.17
2019-04-11T05:04:06.896Z,9.17
2019-04-11T05:06:40.669Z,9.16
2019-04-11T05:09:12.887Z,9.10
2019-04-11T05:11:44.721Z,9.21
2019-04-11T05:14:15.997Z,9.28
2019-04-11T05:16:48.217Z,9.40
2019-04-11T05:19:19.425Z,9.53
2019-04-11T05:21:50.961Z,9.49
2019-04-11T05:24:23.191Z,9.54
2019-04-11T05:26:55.831Z,9.50
2019-04-11T05:29:27.663Z,9.58
2019-04-11T05:31:59.253Z,9.53
2019-04-11T05:34:30.457Z,9.52
2019-04-11T05:37:01.992Z,9.56
2019-04-11T05:39:33.883Z,9.57
2019-04-11T05:42:05.366Z,9.64
2019-04-11T05:44:40.184Z,9.69
2019-04-11T05:47:15.858Z,9.78
2019-04-11T05:49:49.289Z,9.78
2019-04-11T05:52:20.896Z,9.71
2019-04-11T05:54:54.881Z,9.71
2019-04-11T05:57:33.617Z,9.77
2019-04-11T06:00:00.159Z,9.75
2019-04-11T06:02:41.713Z,9.76
2019-04-11T06:05:19.345Z,9.83
2019-04-11T06:07:57.772Z,9.81
2019-04-11T06:10:42.555Z,9.72
2019-04-11T06:13:24.570Z,9.67
2019-04-11T06:16:00.603Z,9.59
2019-04-11T06:18:48.124Z,9.67
2019-04-11T06:21:24.405Z,9.66
2019-04-11T06:24:03.647Z,9.46
2019-04-11T06:26:44.964Z,9.47
2019-04-11T06:29:35.530Z,9.46
2019-04-11T06:32:26.245Z,9.50
2019-04-11T06:35:06.119Z,9.52
2019-04-11T06:37:56.304Z,9.46
2019-04-11T06:40:32.763Z,9.46
2019-04-11T06:43:21.815Z,9.49
2019-04-11T06:46:15.154Z,9.48
2019-04-11T06:49:14.034Z,9.64
2019-04-11T06:51:53.413Z,9.71
2019-04-11T06:54:56.217Z,9.84
2019-04-11T06:57:29.908Z,9.97
2019-04-11T07:00:02.891Z,10.02
2019-04-11T07:02:38.915Z,10.13
2019-04-11T07:05:11.862Z,10.17
2019-04-11T07:07:46.712Z,10.37
2019-04-11T07:10:22.247Z,10.45
2019-04-11T07:13:16.388Z,10.54
2019-04-11T07:15:53.449Z,10.73
2019-04-11T07:18:44.180Z,10.89
2019-04-11T07:21:15.688Z,11.07
2019-04-11T07:24:05.378Z,11.17
2019-04-11T07:26:50.088Z,11.07
2019-04-11T07:29:46.483Z,11.06
2019-04-11T07:32:20.228Z,11.23
2019-04-11T07:35:29.325Z,11.22
2019-04-11T07:38:01.177Z,11.40
2019-04-11T07:40:56.070Z,11.54
2019-04-11T07:43:29.810Z,11.57
2019-04-11T07:46:24.578Z,11.68
2019-04-11T07:48:59.439Z,11.80
2019-04-11T07:51:50.786Z,11.72
2019-04-11T07:54:23.828Z,11.75
2019-04-11T07:57:05.496Z,11.69
2019-04-11T07:59:59.954Z,11.46
2019-04-11T08:02:49.241Z,11.56
2019-04-11T08:05:40.903Z,11.65
2019-04-11T08:08:32.392Z,11.90
2019-04-11T08:11:11.524Z,11.90
2019-04-11T08:14:13.827Z,11.88
2019-04-11T08:17:09.326Z,11.71
2019-04-11T08:20:15.190Z,11.95
2019-04-11T08:22:49.614Z,12.04
2019-04-11T08:25:45.751Z,12.07
2019-04-11T08:28:18.407Z,12.18
2019-04-11T08:30:55.260Z,12.16
2019-04-11T08:33:27.082Z,12.09
2019-04-11T08:36:35.291Z,12.05
2019-04-11T08:39:17.295Z,11.76
2019-04-11T08:42:13.307Z,11.76
2019-04-11T08:44:46.096Z,11.80
2019-04-11T08:47:20.296Z,11.86
2019-04-11T08:49:54.158Z,11.73
2019-04-11T08:52:52.062Z,11.75
2019-04-11T08:55:43.536Z,12.00
2019-04-11T08:58:16.485Z,11.92
2019-04-11T09:00:56.302Z,11.82
2019-04-11T09:03:59.294Z,12.00
2019-04-11T09:06:26.244Z,12.01
2019-04-11T09:09:15.317Z,12.27
2019-04-11T09:11:49.471Z,12.08
2019-04-11T09:14:38.153Z,11.98
2019-04-11T09:17:12.325Z,12.02
2019-04-11T09:20:14.224Z,12.05
2019-04-11T09:22:59.466Z,12.25
2019-04-11T09:26:08.130Z,12.20
2019-04-11T09:28:51.477Z,12.34
2019-04-11T09:31:41.865Z,12.42
2019-04-11T09:34:44.205Z,12.54
2019-04-11T09:37:23.226Z,12.39
2019-04-11T09:40:20.009Z,11.90
2019-04-11T09:43:09.866Z,11.90
2019-04-11T09:45:59.762Z,11.93
2019-04-11T09:48:42.271Z,11.81
2019-04-11T09:51:42.290Z,12.00
2019-04-11T09:54:32.440Z,11.81
2019-04-11T09:57:36.493Z,11.79
2019-04-11T10:00:28.743Z,11.71
2019-04-11T10:03:17.545Z,11.82
2019-04-11T10:05:54.572Z,12.04
2019-04-11T10:08:37.321Z,11.95
2019-04-11T10:11:26.201Z,12.14
2019-04-11T10:14:17.644Z,12.10
2019-04-11T10:17:06.784Z,11.87
2019-04-11T10:20:00.384Z,11.96
2019-04-11T10:22:49.006Z,12.19
2019-04-11T10:25:28.265Z,12.19
2019-04-11T10:28:24.972Z,12.31
2019-04-11T10:31:16.511Z,12.42
2019-04-11T10:34:19.617Z,12.12
2019-04-11T10:37:09.731Z,12.03
2019-04-11T10:40:00.368Z,12.04
2019-04-11T10:42:32.830Z,12.34
2019-04-11T10:45:29.274Z,12.05
2019-04-11T10:48:03.315Z,12.05
2019-04-11T10:51:12.849Z,11.81
2019-04-11T10:53:44.295Z,11.86
2019-04-11T10:56:39.366Z,11.91
2019-04-11T10:59:11.149Z,12.04
2019-04-11T11:02:00.303Z,11.94
2019-04-11T11:04:38.781Z,11.89
2019-04-11T11:07:13.188Z,11.82
2019-04-11T11:10:04.682Z,11.92
2019-04-11T11:13:04.284Z,12.03
2019-04-11T11:15:42.608Z,11.88
2019-04-11T11:18:54.132Z,12.04
2019-04-11T11:21:09.334Z,11.96
2019-04-11T11:24:17.737Z,12.16
2019-04-11T11:26:54.516Z,12.38
2019-04-11T11:29:47.600Z,12.66
2019-04-11T11:32:38.006Z,12.88
2019-04-11T11:35:34.283Z,12.89
2019-04-11T11:38:20.126Z,12.98
2019-04-11T11:41:16.388Z,13.65
2019-04-11T11:43:48.804Z,13.87
2019-04-11T11:46:45.213Z,13.98
2019-04-11T11:49:37.622Z,14.13
2019-04-11T11:52:13.559Z,14.04
2019-04-11T11:54:53.657Z,14.07
2019-04-11T11:57:39.272Z,14.14
2019-04-11T12:00:17.015Z,14.04
2019-04-11T12:03:03.654Z,14.24
2019-04-11T12:05:52.185Z,14.44
2019-04-11T12:08:44.319Z,14.64
2019-04-11T12:11:14.215Z,14.39
2019-04-11T12:14:07.634Z,14.52
2019-04-11T12:16:48.311Z,14.11
2019-04-11T12:19:26.867Z,14.27
2019-04-11T12:21:58.601Z,14.43
2019-04-11T12:25:00.670Z,14.43
2019-04-11T12:28:00.449Z,14.82
2019-04-11T12:30:50.450Z,15.01
2019-04-11T12:33:39.525Z,14.94
2019-04-11T12:36:22.996Z,15.11
2019-04-11T12:39:25.445Z,14.92
2019-04-11T12:42:18.529Z,15.20
2019-04-11T12:45:08.397Z,15.44
2019-04-11T12:47:48.942Z,15.44
2019-04-11T12:50:37.963Z,15.44
2019-04-11T12:53:14.230Z,15.40
2019-04-11T12:56:22.373Z,15.40
2019-04-11T12:59:05.539Z,15.37
2019-04-11T13:01:58.777Z,15.58
2019-04-11T13:04:35.127Z,15.35
2019-04-11T13:07:28.253Z,15.35
2019-04-11T13:10:05.815Z,15.35
2019-04-11T13:13:13.697Z,15.38
2019-04-11T13:15:48.125Z,15.43
2019-04-11T13:18:53.487Z,15.59
2019-04-11T13:21:27.601Z,15.61
2019-04-11T13:24:20.379Z,15.61
2019-04-11T13:27:19.216Z,15.49
2019-04-11T13:30:09.257Z,15.46
2019-04-11T13:32:48.489Z,15.55
2019-04-11T13:35:38.338Z,15.61
2019-04-11T13:38:17.301Z,15.77
2019-04-11T13:41:07.067Z,15.92
2019-04-11T13:44:09.895Z,15.92
2019-04-11T13:46:59.844Z,16.06
2019-04-11T13:49:48.517Z,16.13
2019-04-11T13:52:38.841Z,16.07
2019-04-11T13:55:15.921Z,16.17
2019-04-11T13:58:05.858Z,16.00
2019-04-11T14:00:41.869Z,15.92
2019-04-11T14:03:31.667Z,15.96
2019-04-11T14:06:07.619Z,15.96
2019-04-11T14:09:06.859Z,15.92
2019-04-11T14:11:42.047Z,15.76
2019-04-11T14:14:32.966Z,15.85
2019-04-11T14:17:23.900Z,16.20
2019-04-11T14:20:29.149Z,16.11
2019-04-11T14:23:15.173Z,16.20
2019-04-11T14:26:15.161Z,16.33
2019-04-11T14:29:04.856Z,16.24
2019-04-11T14:32:00.134Z,16.21
2019-04-11T14:34:48.917Z,15.96
2019-04-11T14:37:45.102Z,15.88
2019-04-11T14:40:47.348Z,16.00
2019-04-11T14:43:26.918Z,16.14
2019-04-11T14:46:19.935Z,16.09
2019-04-11T14:48:52.846Z,15.98
2019-04-11T14:51:40.053Z,16.06
2019-04-11T14:54:17.349Z,15.94
2019-04-11T14:56:53.415Z,15.96
2019-04-11T14:59:49.313Z,15.94
2019-04-11T15:02:30.345Z,15.94
2019-04-11T15:05:26.037Z,15.64
2019-04-11T15:07:57.783Z,15.64
2019-04-11T15:10:48.306Z,15.55
2019-04-11T15:13:24.398Z,15.46
2019-04-11T15:16:13.206Z,15.16
2019-04-11T15:18:49.743Z,15.34
2019-04-11T15:21:48.600Z,15.34
2019-04-11T15:24:20.578Z,15.39
2019-04-11T15:27:10.779Z,15.51
2019-04-11T15:29:45.489Z,15.51
2019-04-11T15:32:30.117Z,15.78
2019-04-11T15:35:13.019Z,15.78
2019-04-11T15:38:09.118Z,15.88
2019-04-11T15:40:46.575Z,16.00
2019-04-11T15:43:43.432Z,15.99
2019-04-11T15:46:43.126Z,16.02
2019-04-11T15:49:46.467Z,16.01
2019-04-11T15:52:20.171Z,16.03
2019-04-11T15:55:12.856Z,16.04
2019-04-11T15:57:47.739Z,16.05
2019-04-11T16:00:56.194Z,15.97
2019-04-11T16:03:27.374Z,16.04
2019-04-11T16:06:15.761Z,16.13
2019-04-11T16:08:52.295Z,16.21
2019-04-11T16:11:54.190Z,16.03
2019-04-11T16:14:30.308Z,16.08
2019-04-11T16:17:35.365Z,16.09
2019-04-11T16:20:20.432Z,16.08
2019-04-11T16:23:03.921Z,16.10
2019-04-11T16:25:34.939Z,16.12
2019-04-11T16:28:42.406Z,16.09
2019-04-11T16:31:14.183Z,16.09
2019-04-11T16:34:15.875Z,16.08
2019-04-11T16:37:04.392Z,16.07
2019-04-11T16:39:43.259Z,15.92
2019-04-11T16:42:15.569Z,15.94
2019-04-11T16:45:25.180Z,15.89
2019-04-11T16:48:04.400Z,15.69
2019-04-11T16:50:35.546Z,15.67
2019-04-11T16:53:10.506Z,15.67
2019-04-11T16:55:42.424Z,15.70
2019-04-11T16:58:15.219Z,15.67
2019-04-11T17:00:45.544Z,15.65
2019-04-11T17:03:17.369Z,15.62
2019-04-11T17:06:07.183Z,15.52
2019-04-11T17:08:56.406Z,15.42
2019-04-11T17:11:28.813Z,15.32
2019-04-11T17:13:59.656Z,15.32
2019-04-11T17:16:31.019Z,15.28
2019-04-11T17:19:04.952Z,15.21
2019-04-11T17:21:43.104Z,15.12
2019-04-11T17:24:07.380Z,15.12
2019-04-11T17:26:38.302Z,14.99
2019-04-11T17:29:09.481Z,15.10
2019-04-11T17:31:40.660Z,15.11
2019-04-11T17:34:12.146Z,15.03
2019-04-11T17:36:43.154Z,14.93
2019-04-11T17:39:14.502Z,14.71
2019-04-11T17:41:45.507Z,14.71
2019-04-11T17:44:16.350Z,14.68
2019-04-11T17:46:47.372Z,14.76
2019-04-11T17:49:18.633Z,14.72
2019-04-11T17:51:55.844Z,14.69
2019-04-11T17:54:24.677Z,14.69
2019-04-11T17:56:58.718Z,14.58
2019-04-11T17:59:29.155Z,14.43
2019-04-11T18:02:00.115Z,14.43
2019-04-11T18:04:32.260Z,14.34
2019-04-11T18:07:03.197Z,14.03
2019-04-11T18:09:34.045Z,14.03
2019-04-11T18:12:05.612Z,13.75
2019-04-11T18:14:36.562Z,13.66
2019-04-11T18:17:07.592Z,13.68
2019-04-11T18:19:38.706Z,13.69
2019-04-11T18:22:13.353Z,13.61
2019-04-11T18:24:43.186Z,13.68
2019-04-11T18:27:14.673Z,13.83
2019-04-11T18:29:45.686Z,13.79
2019-04-11T18:32:16.864Z,13.85
2019-04-11T18:34:47.838Z,13.90
2019-04-11T18:37:18.714Z,13.85
2019-04-11T18:39:49.726Z,13.90
2019-04-11T18:42:20.657Z,13.94
2019-04-11T18:44:52.063Z,13.94
2019-04-11T18:47:23.228Z,13.96
2019-04-11T18:49:54.132Z,13.88
2019-04-11T18:52:26.537Z,13.93
2019-04-11T18:54:58.015Z,13.81
2019-04-11T18:57:29.348Z,13.78
2019-04-11T19:00:02.348Z,13.74
2019-04-11T19:02:33.940Z,13.76
2019-04-11T19:05:06.070Z,13.81
2019-04-11T19:07:38.468Z,13.80
2019-04-11T19:10:14.575Z,13.79
2019-04-11T19:12:45.931Z,13.77
2019-04-11T19:15:17.099Z,13.71
2019-04-11T19:17:48.403Z,13.80
2019-04-11T19:20:20.101Z,13.78
2019-04-11T19:22:51.097Z,13.77
2019-04-11T19:25:22.233Z,13.70
2019-04-11T19:27:54.370Z,13.64
2019-04-11T19:30:27.057Z,13.73
2019-04-11T19:32:59.593Z,13.63
2019-04-11T19:35:30.998Z,13.48
2019-04-11T19:38:02.582Z,13.48
2019-04-11T19:40:34.206Z,13.53
2019-04-11T19:43:05.582Z,13.59
2019-04-11T19:45:36.885Z,13.64
2019-04-11T19:48:08.586Z,13.70
2019-04-11T19:50:40.187Z,13.75
2019-04-11T19:53:11.952Z,13.77
2019-04-11T19:56:05.405Z,13.76
2019-04-11T19:58:37.370Z,13.77
2019-04-11T20:01:09.936Z,13.78
2019-04-11T20:03:41.305Z,13.69
2019-04-11T20:06:13.409Z,13.59
2019-04-11T20:08:44.779Z,13.49
2019-04-11T20:11:15.966Z,13.22
2019-04-11T20:13:47.400Z,13.02
2019-04-11T20:16:18.351Z,12.96
2019-04-11T20:18:51.357Z,12.97
2019-04-11T20:21:22.667Z,13.01
2019-04-11T20:23:53.812Z,12.90
2019-04-11T20:26:33.838Z,12.75
2019-04-11T20:29:05.047Z,12.69
2019-04-11T20:31:36.196Z,12.37
2019-04-11T20:34:08.200Z,12.29
2019-04-11T20:36:41.386Z,12.25
2019-04-11T20:39:14.981Z,12.32
2019-04-11T20:41:45.202Z,12.27
2019-04-11T20:44:16.572Z,12.31
2019-04-11T20:46:48.006Z,12.33
2019-04-11T20:49:18.981Z,12.23
2019-04-11T20:51:50.106Z,12.13
2019-04-11T20:54:21.103Z,12.17
2019-04-11T20:56:52.475Z,12.28
2019-04-11T20:59:33.954Z,12.39
2019-04-11T21:01:57.001Z,12.42
2019-04-11T21:04:28.061Z,12.47
2019-04-11T21:07:01.763Z,12.49
2019-04-11T21:09:33.242Z,12.46
2019-04-11T21:12:07.485Z,12.50
2019-04-11T21:14:37.923Z,12.18
2019-04-11T21:17:09.009Z,12.13
2019-04-11T21:19:40.553Z,12.21
2019-04-11T21:22:11.726Z,12.07
2019-04-11T21:24:44.067Z,12.09
2019-04-11T21:27:15.131Z,12.00
2019-04-11T21:29:46.075Z,12.03
2019-04-11T21:32:17.286Z,11.90
2019-04-11T21:34:48.276Z,11.84
2019-04-11T21:37:19.720Z,11.84
2019-04-11T21:39:50.822Z,11.89
2019-04-11T21:42:22.467Z,11.81
2019-04-11T21:44:53.640Z,11.82
2019-04-11T21:47:25.056Z,11.77
2019-04-11T21:49:56.053Z,11.89
2019-04-11T21:52:27.169Z,11.97
2019-04-11T21:54:58.534Z,11.96
2019-04-11T21:57:29.743Z,11.97
2019-04-11T22:00:01.601Z,11.96
2019-04-11T22:02:34.318Z,11.96
2019-04-11T22:05:06.044Z,11.96
2019-04-11T22:07:37.309Z,11.93
2019-04-11T22:10:09.070Z,11.87
2019-04-11T22:12:40.572Z,11.85
2019-04-11T22:15:12.572Z,11.70
2019-04-11T22:17:45.500Z,11.58
2019-04-11T22:20:17.480Z,11.55
2019-04-11T22:22:48.379Z,11.37
2019-04-11T22:25:19.720Z,11.40
2019-04-11T22:27:51.082Z,11.39
2019-04-11T22:30:25.332Z,11.27
2019-04-11T22:33:07.403Z,11.31
2019-04-11T22:35:38.659Z,11.26
2019-04-11T22:38:10.941Z,11.29
2019-04-11T22:40:42.163Z,11.27
2019-04-11T22:43:24.201Z,11.27
2019-04-11T22:45:47.033Z,11.28
2019-04-11T22:48:18.137Z,11.25
2019-04-11T22:50:49.350Z,11.23
2019-04-11T22:53:20.690Z,11.23
2019-04-11T22:55:51.894Z,11.18
2019-04-11T22:58:23.276Z,11.27
2019-04-11T23:00:54.605Z,11.27
2019-04-11T23:03:32.648Z,11.28
2019-04-11T23:06:03.950Z,11.30
2019-04-11T23:08:35.580Z,11.27
2019-04-11T23:11:06.798Z,11.25
2019-04-11T23:13:38.143Z,11.27
2019-04-11T23:16:09.711Z,11.27
2019-04-11T23:18:41.907Z,11.25
2019-04-11T23:21:15.048Z,11.12
2019-04-11T23:23:46.499Z,11.15
2019-04-11T23:26:17.962Z,10.90
2019-04-11T23:28:49.079Z,10.94
2019-04-11T23:31:21.091Z,10.88
2019-04-11T23:33:52.674Z,10.75
2019-04-11T23:36:24.081Z,10.51
2019-04-11T23:38:55.752Z,10.30
2019-04-11T23:41:27.304Z,10.14
2019-04-11T23:43:58.871Z,10.03
2019-04-11T23:46:30.399Z,10.09
2019-04-11T23:49:02.057Z,10.10
2019-04-11T23:51:33.283Z,10.09
2019-04-11T23:54:04.996Z,10.01
2019-04-11T23:56:36.237Z,9.94
2019-04-11T23:59:07.545Z,9.94
